Time;durP1;ratioP1;P1;durP2;ratioP2;P2;SDS_P1;SDS_P2;PMS_P1;PMS_P2;Temp;Humidity;BMP_temperature;BMP_pressure;BME280_temperature;BME280_humidity;BME280_pressure;Samples;Min_cycle;Max_cycle;Signal;HPM_P1;HPM_P2
2022/04/24 00:01:13;;;;;;;8.53;6.27;;;11.40;99.90;;;;;;5073243;28;20208;-63
2022/04/24 00:03:39;;;;;;;8.43;5.90;;;11.40;99.90;;;;;;5074958;28;20201;-63
2022/04/24 00:06:05;;;;;;;6.77;5.90;;;11.30;99.90;;;;;;5074716;28;20257;-64
2022/04/24 00:08:31;;;;;;;7.73;6.07;;;11.30;99.90;;;;;;5074474;28;20233;-63
2022/04/24 00:10:56;;;;;;;7.35;5.75;;;11.30;99.90;;;;;;5074563;28;20186;-64
2022/04/24 00:13:23;;;;;;;7.40;5.87;;;11.30;99.90;;;;;;5075348;28;20190;-63
2022/04/24 00:15:50;;;;;;;7.33;6.27;;;11.20;99.90;;;;;;5074367;28;20196;-63
2022/04/24 00:18:16;;;;;;;7.87;6.33;;;11.20;99.90;;;;;;5074363;28;20174;-64
2022/04/24 00:20:45;;;;;;;9.33;6.47;;;11.10;99.90;;;;;;5074661;28;20591;-64
2022/04/24 00:23:10;;;;;;;7.20;6.17;;;11.10;99.90;;;;;;5074181;28;20250;-64
2022/04/24 00:25:36;;;;;;;7.53;6.70;;;11.10;99.90;;;;;;5074280;28;20261;-64
2022/04/24 00:28:02;;;;;;;9.10;6.57;;;11.00;99.90;;;;;;5073557;28;20201;-64
2022/04/24 00:30:28;;;;;;;6.47;5.83;;;11.00;99.90;;;;;;5074086;28;20192;-63
2022/04/24 00:32:54;;;;;;;8.90;6.37;;;11.00;99.90;;;;;;5072787;28;20196;-64
2022/04/24 00:35:20;;;;;;;7.10;6.07;;;10.90;99.90;;;;;;5074475;28;20173;-64
2022/04/24 00:37:45;;;;;;;6.87;6.17;;;10.90;99.90;;;;;;5074031;28;20184;-63
2022/04/24 00:40:11;;;;;;;7.27;6.27;;;10.90;99.90;;;;;;5074168;28;20731;-64
2022/04/24 00:42:37;;;;;;;7.43;6.47;;;10.80;99.90;;;;;;5074154;28;20190;-63
2022/04/24 00:45:03;;;;;;;8.00;6.23;;;10.80;99.90;;;;;;5073879;28;20177;-64
2022/04/24 00:47:29;;;;;;;7.50;6.37;;;10.70;99.90;;;;;;5073679;28;20197;-64
2022/04/24 00:49:55;;;;;;;8.23;6.33;;;10.70;99.90;;;;;;5074424;28;20169;-64
2022/04/24 00:52:21;;;;;;;10.27;6.80;;;10.60;99.90;;;;;;5073838;28;20619;-64
2022/04/24 00:54:47;;;;;;;8.13;6.80;;;10.60;99.90;;;;;;5073800;28;20165;-64
2022/04/24 00:57:13;;;;;;;8.40;7.13;;;10.50;99.90;;;;;;5073708;28;20180;-64
2022/04/24 00:59:40;;;;;;;8.13;6.73;;;10.40;99.90;;;;;;5073570;28;20173;-63
2022/04/24 01:02:08;;;;;;;7.33;6.13;;;10.40;99.90;;;;;;5073438;28;20185;-63
2022/04/24 01:04:34;;;;;;;8.67;6.80;;;10.30;99.90;;;;;;5073547;28;20543;-63
2022/04/24 01:07:00;;;;;;;8.03;6.93;;;10.30;99.90;;;;;;5072261;28;20206;-63
2022/04/24 01:09:26;;;;;;;8.83;7.30;;;10.20;99.90;;;;;;5072239;28;20183;-64
2022/04/24 01:11:54;;;;;;;10.13;7.43;;;10.20;99.90;;;;;;5073435;28;20215;-63
2022/04/24 01:14:22;;;;;;;8.70;7.20;;;10.20;99.90;;;;;;5074293;28;20169;-63
2022/04/24 01:16:49;;;;;;;8.77;7.50;;;10.10;99.90;;;;;;5073607;28;20169;-63
2022/04/24 01:19:17;;;;;;;9.17;7.23;;;10.10;99.90;;;;;;5074213;28;20201;-63
2022/04/24 01:21:48;;;;;;;8.43;7.00;;;10.10;99.90;;;;;;5072075;28;20224;-63
2022/04/24 01:24:17;;;;;;;7.60;6.43;;;10.10;99.90;;;;;;5073830;28;20182;-63
2022/04/24 01:26:43;;;;;;;9.30;7.10;;;10.10;99.90;;;;;;5073299;28;20177;-64
2022/04/24 01:29:12;;;;;;;10.00;7.30;;;10.00;99.90;;;;;;5073485;28;20174;-64
2022/04/24 01:31:39;;;;;;;9.30;6.90;;;10.00;99.90;;;;;;5073220;28;20190;-63
2022/04/24 01:34:05;;;;;;;8.33;7.47;;;10.00;99.90;;;;;;5073765;28;20174;-63
2022/04/24 01:36:31;;;;;;;8.63;7.63;;;9.90;99.90;;;;;;5073740;28;20170;-63
2022/04/24 01:38:56;;;;;;;9.67;7.47;;;9.90;99.90;;;;;;5075511;28;20230;-63
2022/04/24 01:41:22;;;;;;;9.47;7.30;;;9.80;99.90;;;;;;5077609;28;20193;-63
2022/04/24 01:43:48;;;;;;;9.77;7.53;;;9.90;99.90;;;;;;5077402;28;20184;-63
2022/04/24 01:46:14;;;;;;;8.97;6.80;;;9.80;99.90;;;;;;5077287;28;20318;-63
2022/04/24 01:48:40;;;;;;;9.43;7.57;;;9.80;99.90;;;;;;5077288;28;20201;-63
2022/04/24 01:51:08;;;;;;;11.03;7.70;;;9.80;99.90;;;;;;5077510;28;20180;-63
2022/04/24 01:53:35;;;;;;;9.13;7.97;;;9.70;99.90;;;;;;5077346;28;20170;-63
2022/04/24 01:56:05;;;;;;;10.30;8.00;;;9.70;99.90;;;;;;5077107;28;20239;-63
2022/04/24 01:58:32;;;;;;;8.80;7.60;;;9.70;99.90;;;;;;5077497;28;20607;-63
2022/04/24 02:00:57;;;;;;;9.50;7.47;;;9.70;99.90;;;;;;5077003;28;20511;-63
2022/04/24 02:03:24;;;;;;;9.10;7.70;;;9.60;99.90;;;;;;5076823;28;20251;-63
2022/04/24 02:05:50;;;;;;;12.20;7.63;;;9.60;99.90;;;;;;5076930;28;20272;-64
2022/04/24 02:08:16;;;;;;;8.67;7.43;;;9.60;99.90;;;;;;5076712;28;20241;-64
2022/04/24 02:10:42;;;;;;;9.40;8.10;;;9.50;99.90;;;;;;5076630;28;20196;-63
2022/04/24 02:13:08;;;;;;;8.70;7.80;;;9.50;99.90;;;;;;5076803;28;20719;-64
2022/04/24 02:15:34;;;;;;;9.23;7.67;;;9.40;99.90;;;;;;5076699;28;20170;-63
2022/04/24 02:18:00;;;;;;;9.93;8.23;;;9.40;99.90;;;;;;5076617;28;20231;-64
2022/04/24 02:20:26;;;;;;;9.90;8.00;;;9.40;99.90;;;;;;5077205;28;20253;-63
2022/04/24 02:22:55;;;;;;;8.93;8.03;;;9.30;99.90;;;;;;5075296;28;20618;-63
2022/04/24 02:25:21;;;;;;;9.30;7.93;;;9.30;99.90;;;;;;5076572;28;20204;-63
2022/04/24 02:27:47;;;;;;;10.63;8.17;;;9.30;99.90;;;;;;5076534;28;20310;-63
2022/04/24 02:30:13;;;;;;;10.27;8.13;;;9.20;99.90;;;;;;5076585;28;20197;-63
2022/04/24 02:32:38;;;;;;;9.37;8.00;;;9.20;99.90;;;;;;5076419;28;20561;-65
2022/04/24 02:35:05;;;;;;;9.20;7.47;;;9.20;99.90;;;;;;5077603;28;20158;-64
2022/04/24 02:37:32;;;;;;;10.20;8.07;;;9.20;99.90;;;;;;5078385;28;20223;-63
2022/04/24 02:39:58;;;;;;;11.07;8.33;;;9.10;99.90;;;;;;5078441;28;20257;-63
2022/04/24 02:42:24;;;;;;;8.83;7.80;;;9.10;99.90;;;;;;5077439;28;20329;-64
2022/04/24 02:44:50;;;;;;;9.87;8.00;;;9.10;99.90;;;;;;5077751;28;20166;-64
2022/04/24 02:47:16;;;;;;;9.90;8.10;;;9.00;99.90;;;;;;5076408;28;20205;-63
2022/04/24 02:49:42;;;;;;;9.97;8.13;;;9.00;99.90;;;;;;5075267;28;20174;-63
2022/04/24 02:52:08;;;;;;;10.50;8.70;;;8.90;99.90;;;;;;5076249;28;20190;-64
2022/04/24 02:54:33;;;;;;;10.00;9.00;;;8.80;99.90;;;;;;5076365;28;20170;-63
2022/04/24 02:57:00;;;;;;;9.57;8.40;;;8.80;99.90;;;;;;5076104;28;20178;-64
2022/04/24 02:59:26;;;;;;;10.00;8.37;;;8.80;99.90;;;;;;5076072;28;20657;-63
2022/04/24 03:01:54;;;;;;;10.50;8.47;;;8.70;99.90;;;;;;5075737;28;20202;-63
2022/04/24 03:04:20;;;;;;;10.10;8.53;;;8.70;99.90;;;;;;5076250;28;20154;-64
2022/04/24 03:06:45;;;;;;;9.83;8.27;;;8.60;99.90;;;;;;5076039;28;20207;-63
2022/04/24 03:09:12;;;;;;;10.70;8.80;;;8.60;99.90;;;;;;5075845;28;20185;-63
2022/04/24 03:11:37;;;;;;;10.57;8.43;;;8.70;99.90;;;;;;5075829;28;20213;-64
2022/04/24 03:14:03;;;;;;;10.17;8.63;;;8.60;99.90;;;;;;5075900;28;20173;-63
2022/04/24 03:16:29;;;;;;;11.17;9.63;;;8.60;99.90;;;;;;5076666;28;20654;-64
2022/04/24 03:18:55;;;;;;;10.37;9.27;;;8.60;99.90;;;;;;5076302;28;20204;-63
2022/04/24 03:21:20;;;;;;;11.00;8.87;;;8.50;99.90;;;;;;5076371;28;20220;-62
2022/04/24 03:23:46;;;;;;;10.97;9.00;;;8.50;99.90;;;;;;5075611;28;20181;-63
2022/04/24 03:26:15;;;;;;;10.53;8.83;;;8.50;99.90;;;;;;5075524;28;20189;-63
2022/04/24 03:28:42;;;;;;;12.63;9.47;;;8.40;99.90;;;;;;5074141;28;20199;-63
2022/04/24 03:31:08;;;;;;;12.60;9.13;;;8.40;99.90;;;;;;5073829;28;20203;-63
2022/04/24 03:33:34;;;;;;;9.93;8.60;;;8.40;99.90;;;;;;5075925;28;20187;-63
2022/04/24 03:35:59;;;;;;;10.50;9.33;;;8.40;99.90;;;;;;5075132;28;20173;-63
2022/04/24 03:38:25;;;;;;;9.87;8.87;;;8.30;99.90;;;;;;5075272;28;20185;-63
2022/04/24 03:40:51;;;;;;;11.50;9.17;;;8.30;99.90;;;;;;5075073;28;20249;-63
2022/04/24 03:43:16;;;;;;;10.63;9.27;;;8.20;99.90;;;;;;5075470;28;20198;-63
2022/04/24 03:45:42;;;;;;;11.93;9.70;;;8.20;99.90;;;;;;5075036;28;20201;-64
2022/04/24 03:48:08;;;;;;;12.50;9.97;;;8.20;99.90;;;;;;5074742;28;20287;-64
2022/04/24 03:50:33;;;;;;;11.60;9.57;;;8.20;99.90;;;;;;5075071;28;20260;-63
2022/04/24 03:52:59;;;;;;;11.97;10.27;;;8.20;99.90;;;;;;5074809;28;20185;-63
2022/04/24 03:55:25;;;;;;;13.27;10.30;;;8.10;99.90;;;;;;5074848;28;20178;-63
2022/04/24 03:57:51;;;;;;;10.97;9.53;;;8.10;99.90;;;;;;5074803;28;20182;-63
2022/04/24 04:00:17;;;;;;;11.50;10.07;;;8.10;99.90;;;;;;5073538;28;20577;-63
2022/04/24 04:02:47;;;;;;;11.17;9.50;;;8.00;99.90;;;;;;5074210;28;20662;-63
2022/04/24 04:05:14;;;;;;;11.30;9.93;;;8.00;99.90;;;;;;5074773;28;20635;-63
2022/04/24 04:07:40;;;;;;;10.97;9.70;;;7.90;99.90;;;;;;5073099;28;20296;-63
2022/04/24 04:10:07;;;;;;;12.53;10.40;;;7.90;99.90;;;;;;5074350;28;20206;-64
2022/04/24 04:12:32;;;;;;;12.63;10.50;;;7.90;99.90;;;;;;5074627;28;20696;-64
2022/04/24 04:15:09;;;;;;;12.40;10.50;;;7.90;99.90;;;;;;5074462;28;20166;-63
2022/04/24 04:17:35;;;;;;;11.20;10.00;;;7.90;99.90;;;;;;5074085;28;20554;-63
2022/04/24 04:20:01;;;;;;;12.23;10.37;;;7.90;99.90;;;;;;5074246;28;20173;-68
2022/04/24 04:22:26;;;;;;;12.90;10.43;;;7.80;99.90;;;;;;5074322;28;20190;-64
2022/04/24 04:24:53;;;;;;;12.53;10.77;;;7.80;99.90;;;;;;5074555;28;20170;-63
2022/04/24 04:27:19;;;;;;;13.00;10.87;;;7.80;99.90;;;;;;5074128;28;20687;-63
2022/04/24 04:29:45;;;;;;;12.37;9.70;;;7.80;99.90;;;;;;5074621;28;20630;-63
2022/04/24 04:32:11;;;;;;;12.00;10.43;;;7.70;99.90;;;;;;5073808;28;20194;-63
2022/04/24 04:34:37;;;;;;;13.57;11.63;;;7.70;99.90;;;;;;5073935;28;20657;-63
2022/04/24 04:37:03;;;;;;;13.30;10.97;;;7.70;99.90;;;;;;5073944;28;20170;-64
2022/04/24 04:39:29;;;;;;;11.77;10.50;;;7.70;99.90;;;;;;5073756;28;20174;-64
2022/04/24 04:41:54;;;;;;;12.73;10.70;;;7.70;99.90;;;;;;5073832;28;20200;-63
2022/04/24 04:44:20;;;;;;;12.03;10.83;;;7.70;99.90;;;;;;5073904;28;20173;-63
2022/04/24 04:46:46;;;;;;;13.23;10.07;;;7.70;99.90;;;;;;5073657;28;20586;-63
2022/04/24 04:49:11;;;;;;;12.37;10.13;;;7.70;99.90;;;;;;5073850;28;20174;-63
2022/04/24 04:51:37;;;;;;;12.73;9.93;;;7.70;99.90;;;;;;5073756;28;20603;-63
2022/04/24 04:54:03;;;;;;;15.07;11.53;;;7.80;99.90;;;;;;5074235;28;20170;-64
2022/04/24 04:56:29;;;;;;;14.27;10.37;;;7.80;99.90;;;;;;5073680;28;20169;-63
2022/04/24 04:58:54;;;;;;;12.33;10.37;;;7.90;99.90;;;;;;5073939;28;20566;-63
2022/04/24 05:01:20;;;;;;;13.70;10.63;;;7.90;99.90;;;;;;5073585;28;20937;-63
2022/04/24 05:03:46;;;;;;;12.10;9.97;;;8.00;99.90;;;;;;5073668;28;20173;-64
2022/04/24 05:06:12;;;;;;;11.00;9.60;;;8.00;99.90;;;;;;5073980;28;20185;-64
2022/04/24 05:08:37;;;;;;;13.63;9.87;;;8.00;99.90;;;;;;5073334;28;20259;-64
2022/04/24 05:11:03;;;;;;;12.67;10.03;;;8.10;99.90;;;;;;5073303;28;20186;-63
2022/04/24 05:13:29;;;;;;;13.10;10.10;;;8.20;99.90;;;;;;5073020;28;20250;-63
2022/04/24 05:15:54;;;;;;;11.53;9.70;;;8.20;99.90;;;;;;5073890;28;20169;-63
2022/04/24 05:18:20;;;;;;;12.73;9.37;;;8.30;99.90;;;;;;5073198;28;20174;-63
2022/04/24 05:20:46;;;;;;;10.70;9.53;;;8.30;99.90;;;;;;5072149;28;20551;-65
2022/04/24 05:23:12;;;;;;;11.10;9.67;;;8.40;99.90;;;;;;5073377;28;20201;-63
2022/04/24 05:25:38;;;;;;;10.50;9.40;;;8.40;99.90;;;;;;5073398;28;20210;-63
2022/04/24 05:28:04;;;;;;;12.17;9.50;;;8.40;99.90;;;;;;5071899;28;20236;-64
2022/04/24 05:30:31;;;;;;;14.17;9.27;;;8.50;99.90;;;;;;5073307;28;20634;-64
2022/04/24 05:32:57;;;;;;;11.97;9.47;;;8.50;99.90;;;;;;5072910;28;20213;-63
2022/04/24 05:35:23;;;;;;;11.10;9.60;;;8.60;99.90;;;;;;5073133;28;20170;-63
2022/04/24 05:37:49;;;;;;;12.63;8.77;;;8.70;99.90;;;;;;5071696;28;20697;-63
2022/04/24 05:40:15;;;;;;;10.97;9.10;;;8.70;99.90;;;;;;5073478;28;20169;-63
2022/04/24 05:42:49;;;;;;;11.33;10.00;;;8.80;99.90;;;;;;5071735;28;20193;-63
2022/04/24 05:45:18;;;;;;;10.77;8.97;;;8.90;99.90;;;;;;5073441;28;20162;-63
2022/04/24 05:47:46;;;;;;;13.13;9.03;;;9.00;99.90;;;;;;5072967;28;20220;-63
2022/04/24 05:50:13;;;;;;;11.30;9.93;;;9.00;99.90;;;;;;5073654;28;20256;-63
2022/04/24 05:52:40;;;;;;;10.67;9.00;;;9.10;99.90;;;;;;5073401;28;20565;-63
2022/04/24 05:55:06;;;;;;;10.40;9.30;;;9.20;99.90;;;;;;5073324;28;20151;-63
2022/04/24 05:57:31;;;;;;;11.27;8.83;;;9.20;99.90;;;;;;5071794;28;20295;-63
2022/04/24 05:59:58;;;;;;;10.33;8.97;;;9.30;99.90;;;;;;5071744;28;20174;-63
2022/04/24 06:02:24;;;;;;;11.13;8.87;;;9.40;99.90;;;;;;5072655;28;20196;-63
2022/04/24 06:04:50;;;;;;;13.30;9.20;;;9.50;99.90;;;;;;5072977;28;20505;-63
2022/04/24 06:07:16;;;;;;;10.83;8.23;;;9.50;99.90;;;;;;5072870;28;20228;-63
2022/04/24 06:09:41;;;;;;;11.07;8.60;;;9.60;99.90;;;;;;5072806;28;20185;-63
2022/04/24 06:12:08;;;;;;;12.70;8.93;;;9.70;99.90;;;;;;5072684;28;20280;-63
2022/04/24 06:14:34;;;;;;;10.13;8.70;;;9.80;99.90;;;;;;5071540;28;20174;-63
2022/04/24 06:17:00;;;;;;;10.13;8.73;;;9.90;99.90;;;;;;5072963;28;20181;-63
2022/04/24 06:19:27;;;;;;;10.70;8.93;;;10.00;99.90;;;;;;5072765;28;20166;-63
2022/04/24 06:21:53;;;;;;;10.13;8.53;;;10.00;99.90;;;;;;5072788;28;20202;-63
2022/04/24 06:24:18;;;;;;;10.97;8.83;;;10.10;99.90;;;;;;5072713;28;20170;-63
2022/04/24 06:26:45;;;;;;;12.63;8.70;;;10.20;99.90;;;;;;5076109;28;20252;-63
2022/04/24 06:29:12;;;;;;;11.80;9.00;;;10.20;99.90;;;;;;5076205;28;20229;-63
2022/04/24 06:31:37;;;;;;;10.90;8.53;;;10.30;99.90;;;;;;5076102;28;20194;-63
2022/04/24 06:34:03;;;;;;;11.53;8.70;;;10.40;99.90;;;;;;5076585;28;20231;-64
2022/04/24 06:36:29;;;;;;;13.27;8.60;;;10.50;99.90;;;;;;5076412;28;20178;-63
2022/04/24 06:38:54;;;;;;;9.67;8.20;;;10.60;99.90;;;;;;5076346;28;20178;-63
2022/04/24 06:41:20;;;;;;;13.90;8.80;;;10.70;99.90;;;;;;5076233;28;20174;-65
2022/04/24 06:43:46;;;;;;;11.70;8.87;;;10.80;99.90;;;;;;5076462;28;20574;-63
2022/04/24 06:46:11;;;;;;;13.87;9.10;;;10.90;99.90;;;;;;5076263;28;20193;-66
2022/04/24 06:48:37;;;;;;;12.23;8.27;;;11.00;99.90;;;;;;5075764;28;20670;-63
2022/04/24 06:51:03;;;;;;;12.57;8.17;;;11.10;99.90;;;;;;5074748;28;20227;-63
2022/04/24 06:53:30;;;;;;;9.80;8.27;;;11.10;99.90;;;;;;5076091;28;20177;-63
2022/04/24 06:55:56;;;;;;;10.20;8.33;;;11.10;99.90;;;;;;5075924;28;20560;-63
2022/04/24 06:58:24;;;;;;;10.77;8.20;;;11.20;99.90;;;;;;5075851;28;20178;-63
2022/04/24 07:00:50;;;;;;;9.20;8.00;;;11.20;99.90;;;;;;5075897;28;20180;-63
2022/04/24 07:03:20;;;;;;;11.47;8.60;;;11.30;99.90;;;;;;5075524;28;20194;-63
2022/04/24 07:05:47;;;;;;;11.17;8.47;;;11.30;99.90;;;;;;5076023;28;20615;-63
2022/04/24 07:08:13;;;;;;;14.13;9.20;;;11.40;99.90;;;;;;5075893;28;20207;-63
2022/04/24 07:10:39;;;;;;;12.03;8.50;;;11.40;99.90;;;;;;5075920;28;20213;-63
2022/04/24 07:13:05;;;;;;;10.80;8.20;;;11.50;99.90;;;;;;5076125;28;20217;-62
2022/04/24 07:15:36;;;;;;;11.57;8.97;;;11.60;99.90;;;;;;5075965;28;20180;-64
2022/04/24 07:18:03;;;;;;;9.97;8.13;;;11.70;99.90;;;;;;5075531;28;20623;-66
2022/04/24 07:20:29;;;;;;;9.43;7.97;;;11.90;99.90;;;;;;5076018;28;20182;-69
2022/04/24 07:22:57;;;;;;;9.68;7.57;;;11.90;99.90;;;;;;5074314;28;20201;-64
2022/04/24 07:25:25;;;;;;;9.30;7.80;;;12.00;99.90;;;;;;5075448;28;20713;-63
2022/04/24 07:27:51;;;;;;;11.20;8.17;;;12.10;99.90;;;;;;5075228;28;20243;-62
2022/04/24 07:30:18;;;;;;;8.18;7.25;;;12.10;99.90;;;;;;5074051;28;20178;-62
2022/04/24 07:32:50;;;;;;;9.93;7.77;;;12.20;99.90;;;;;;5075297;28;20292;-62
2022/04/24 07:35:18;;;;;;;10.32;8.60;;;12.20;99.90;;;;;;5075316;28;20639;-62
2022/04/24 07:37:45;;;;;;;11.57;8.47;;;12.40;99.90;;;;;;5073468;28;20186;-62
2022/04/24 07:40:13;;;;;;;12.20;8.67;;;12.40;99.90;;;;;;5075201;28;20227;-63
2022/04/24 07:42:45;;;;;;;10.47;8.40;;;12.40;99.90;;;;;;5075356;28;20196;-61
2022/04/24 07:45:11;;;;;;;11.40;8.85;;;12.40;99.90;;;;;;5075386;28;20223;-65
2022/04/24 07:47:37;;;;;;;9.80;8.30;;;12.50;99.90;;;;;;5074707;28;20697;-63
2022/04/24 07:50:03;;;;;;;11.52;8.18;;;12.50;99.90;;;;;;5075439;28;20304;-63
2022/04/24 07:52:29;;;;;;;9.15;8.05;;;12.70;99.90;;;;;;5074978;28;20189;-63
2022/04/24 07:54:54;;;;;;;10.98;8.60;;;12.80;99.90;;;;;;5074854;28;20177;-64
2022/04/24 07:57:21;;;;;;;10.18;8.35;;;12.90;99.90;;;;;;5074883;28;20169;-63
2022/04/24 07:59:47;;;;;;;10.95;8.40;;;13.00;99.90;;;;;;5075376;28;20520;-63
2022/04/24 08:02:12;;;;;;;11.73;8.65;;;13.10;99.90;;;;;;5074979;28;20209;-63
2022/04/24 08:04:38;;;;;;;11.07;8.38;;;13.20;99.90;;;;;;5074847;28;20223;-63
2022/04/24 08:07:04;;;;;;;12.93;8.30;;;13.30;99.90;;;;;;5073580;28;20185;-63
2022/04/24 08:09:30;;;;;;;12.70;8.82;;;13.30;99.90;;;;;;5073349;28;20186;-63
2022/04/24 08:11:55;;;;;;;9.75;8.07;;;13.40;99.90;;;;;;5074768;28;20243;-63
2022/04/24 08:14:21;;;;;;;10.50;8.65;;;13.40;99.90;;;;;;5075039;28;20177;-63
2022/04/24 08:16:47;;;;;;;11.82;8.98;;;13.50;99.90;;;;;;5074511;28;20181;-62
2022/04/24 08:19:13;;;;;;;12.40;9.20;;;13.60;99.90;;;;;;5074537;28;20646;-62
2022/04/24 08:21:39;;;;;;;9.50;7.97;;;13.90;99.90;;;;;;5074569;28;20208;-63
2022/04/24 08:24:04;;;;;;;9.68;8.05;;;14.40;99.90;;;;;;5074524;28;20170;-62
2022/04/24 08:26:30;;;;;;;10.52;7.70;;;15.30;99.90;;;;;;5074722;28;20174;-63
2022/04/24 08:28:56;;;;;;;12.10;8.15;;;16.50;99.90;;;;;;5074550;28;20198;-64
2022/04/24 08:31:21;;;;;;;11.30;8.00;;;17.80;99.90;;;;;;5074336;28;20216;-63
2022/04/24 08:33:47;;;;;;;9.65;7.75;;;18.70;99.90;;;;;;5074322;28;20591;-63
2022/04/24 08:36:13;;;;;;;11.10;7.68;;;19.30;99.90;;;;;;5074236;28;20170;-63
2022/04/24 08:38:38;;;;;;;10.05;7.85;;;19.40;99.90;;;;;;5074090;28;20182;-63
2022/04/24 08:41:05;;;;;;;9.38;7.68;;;19.80;99.90;;;;;;5074527;28;20253;-63
2022/04/24 08:43:32;;;;;;;10.02;8.32;;;19.80;99.90;;;;;;5072646;28;20205;-63
2022/04/24 08:45:58;;;;;;;8.40;7.38;;;19.70;99.90;;;;;;5073931;28;20170;-63
2022/04/24 08:48:23;;;;;;;8.40;7.50;;;19.80;99.90;;;;;;5072995;28;20198;-63
2022/04/24 08:50:49;;;;;;;8.63;6.65;;;19.40;99.90;;;;;;5072561;28;20173;-63
2022/04/24 08:53:15;;;;;;;8.52;7.50;;;19.70;99.90;;;;;;5073786;28;20268;-63
2022/04/24 08:55:42;;;;;;;8.82;7.80;;;19.60;99.90;;;;;;5073779;28;20170;-63
2022/04/24 08:58:08;;;;;;;9.98;8.27;;;19.60;99.90;;;;;;5073819;28;20265;-63
2022/04/24 09:00:33;;;;;;;11.13;8.20;;;19.20;99.90;;;;;;5073736;28;20202;-63
2022/04/24 09:03:00;;;;;;;11.55;7.97;;;19.10;99.90;;;;;;5073563;28;20205;-63
2022/04/24 09:05:28;;;;;;;10.75;7.30;;;18.80;99.90;;;;;;5073679;28;20253;-63
2022/04/24 09:08:10;;;;;;;9.93;8.13;;;18.70;99.90;;;;;;5074807;28;20202;-62
2022/04/24 09:10:54;;;;;;;9.98;8.05;;;18.50;99.90;;;;;;5074339;28;20269;-63
2022/04/24 09:16:18;;;;;;;10.00;8.68;;;18.10;99.90;;;;;;5073697;28;20580;-63
2022/04/24 09:18:46;;;;;;;10.55;8.98;;;18.00;99.90;;;;;;5073298;28;20166;-63
2022/04/24 09:21:13;;;;;;;14.68;8.75;;;17.70;99.90;;;;;;5073521;28;20247;-63
2022/04/24 09:23:40;;;;;;;12.75;8.73;;;17.70;99.90;;;;;;5072200;28;20177;-63
2022/04/24 09:26:12;;;;;;;10.77;8.68;;;17.70;99.90;;;;;;5073890;28;20158;-63
2022/04/24 09:28:40;;;;;;;13.75;8.93;;;17.60;99.90;;;;;;5073514;28;20224;-63
2022/04/24 09:31:06;;;;;;;11.30;8.55;;;17.60;99.90;;;;;;5073664;28;20166;-63
2022/04/24 09:33:43;;;;;;;11.82;9.00;;;17.80;99.90;;;;;;5072046;28;20605;-62
2022/04/24 09:36:10;;;;;;;10.63;8.90;;;17.70;99.90;;;;;;5073585;28;20180;-63
2022/04/24 09:38:44;;;;;;;11.77;8.73;;;17.90;99.90;;;;;;5073200;28;20216;-63
2022/04/24 09:41:23;;;;;;;12.10;9.48;;;17.90;99.90;;;;;;5071909;28;20181;-63
2022/04/24 09:43:50;;;;;;;10.50;9.07;;;17.90;99.90;;;;;;5071915;28;20604;-63
2022/04/24 09:46:29;;;;;;;12.43;9.05;;;17.90;99.90;;;;;;5073536;28;20162;-63
2022/04/24 09:48:58;;;;;;;14.23;9.38;;;18.10;99.90;;;;;;5071685;28;20197;-63
2022/04/24 09:51:24;;;;;;;14.05;9.43;;;18.10;99.90;;;;;;5073499;28;20193;-63
2022/04/24 09:53:52;;;;;;;11.63;8.55;;;18.20;99.90;;;;;;5073187;28;20170;-64
2022/04/24 09:56:19;;;;;;;10.60;9.13;;;18.20;99.90;;;;;;5071824;28;20260;-63
2022/04/24 09:58:47;;;;;;;15.20;9.23;;;18.20;99.90;;;;;;5072144;28;20182;-67
2022/04/24 10:01:13;;;;;;;12.75;9.23;;;18.30;99.90;;;;;;5077439;28;20158;-67
2022/04/24 10:03:39;;;;;;;10.73;9.20;;;18.40;99.90;;;;;;5076726;28;20174;-67
2022/04/24 10:06:07;;;;;;;9.80;8.32;;;18.40;99.90;;;;;;5075875;28;20228;-68
2022/04/24 10:08:36;;;;;;;11.40;8.98;;;18.40;99.90;;;;;;5077221;28;20240;-68
2022/04/24 10:11:06;;;;;;;10.70;8.38;;;18.50;99.90;;;;;;5075602;28;20221;-69
2022/04/24 10:13:36;;;;;;;12.25;9.27;;;18.50;99.90;;;;;;5077315;28;20645;-68
2022/04/24 10:16:39;;;;;;;10.02;8.50;;;18.80;99.90;;;;;;5077118;28;20202;-68
2022/04/24 10:19:04;;;;;;;12.73;8.82;;;18.70;99.90;;;;;;5076982;28;20230;-67
2022/04/24 10:21:57;;;;;;;11.15;9.23;;;18.60;99.90;;;;;;5077184;28;20269;-66
2022/04/24 10:24:23;;;;;;;12.13;8.00;;;18.60;99.90;;;;;;5076809;28;20249;-64
2022/04/24 10:27:03;;;;;;;10.57;9.00;;;18.70;99.90;;;;;;5076733;28;20177;-63
2022/04/24 10:29:29;;;;;;;11.00;8.57;;;18.60;99.90;;;;;;5076580;28;20200;-63
2022/04/24 10:31:55;;;;;;;13.20;8.38;;;18.50;99.90;;;;;;5076972;28;20220;-63
2022/04/24 10:34:22;;;;;;;8.93;7.65;;;18.60;99.90;;;;;;5076386;28;20197;-63
2022/04/24 10:37:02;;;;;;;10.10;8.73;;;18.60;99.90;;;;;;5076660;28;20184;-63
2022/04/24 10:39:35;;;;;;;9.25;7.93;;;18.70;99.90;;;;;;5076787;28;20714;-63
2022/04/24 10:42:08;;;;;;;10.43;8.50;;;18.70;99.90;;;;;;5076724;28;20190;-63
2022/04/24 10:44:34;;;;;;;10.38;8.73;;;18.70;99.90;;;;;;5076671;28;20154;-64
2022/04/24 10:47:10;;;;;;;10.80;8.43;;;18.70;99.90;;;;;;5076525;28;20176;-63
2022/04/24 10:49:36;;;;;;;10.65;7.97;;;18.80;99.90;;;;;;5076842;28;20164;-63
2022/04/24 10:52:04;;;;;;;9.80;8.20;;;19.00;99.90;;;;;;5077008;28;20197;-63
2022/04/24 10:54:31;;;;;;;14.15;8.88;;;19.20;99.90;;;;;;5075524;28;20253;-63
2022/04/24 10:56:57;;;;;;;9.73;8.38;;;19.30;99.90;;;;;;5075292;28;20204;-64
2022/04/24 10:59:23;;;;;;;11.25;8.80;;;19.30;99.90;;;;;;5076586;28;20555;-64
2022/04/24 11:01:52;;;;;;;10.10;8.38;;;19.40;99.90;;;;;;5076316;28;20198;-63
2022/04/24 11:04:19;;;;;;;10.70;7.95;;;19.50;99.90;;;;;;5076160;28;20174;-63
2022/04/24 11:07:04;;;;;;;10.70;8.73;;;19.30;99.90;;;;;;5077388;28;20219;-62
2022/04/24 11:09:38;;;;;;;13.02;7.78;;;19.40;99.90;;;;;;5074999;28;20185;-63
2022/04/24 11:12:08;;;;;;;11.88;8.68;;;19.50;99.90;;;;;;5073904;28;20246;-63
2022/04/24 11:14:35;;;;;;;10.85;8.68;;;19.40;99.90;;;;;;5076267;28;20212;-63
2022/04/24 11:17:03;;;;;;;9.13;8.13;;;19.40;99.90;;;;;;5076075;28;20166;-63
2022/04/24 11:19:35;;;;;;;12.07;9.10;;;19.70;99.90;;;;;;5074283;28;20182;-63
2022/04/24 11:22:08;;;;;;;11.48;8.20;;;19.80;99.90;;;;;;5074528;28;20670;-63
2022/04/24 11:24:37;;;;;;;11.55;9.32;;;20.10;99.90;;;;;;5076023;28;20184;-64
2022/04/24 11:27:14;;;;;;;11.50;7.25;;;20.00;99.90;;;;;;5075862;28;20170;-63
2022/04/24 11:29:43;;;;;;;9.90;7.47;;;20.20;99.90;;;;;;5074323;28;20165;-63
2022/04/24 11:32:09;;;;;;;9.20;7.82;;;20.20;99.90;;;;;;5073891;28;20202;-62
2022/04/24 11:34:37;;;;;;;11.65;8.98;;;20.30;99.90;;;;;;5075775;28;20150;-63
2022/04/24 11:37:04;;;;;;;11.40;9.30;;;20.10;99.90;;;;;;5075356;28;20178;-63
2022/04/24 11:39:31;;;;;;;11.82;9.10;;;20.10;99.90;;;;;;5075273;28;20540;-63
2022/04/24 11:42:00;;;;;;;12.52;8.82;;;20.10;99.90;;;;;;5076047;28;20190;-64
2022/04/24 11:50:15;;;;;;;10.25;7.60;;;20.50;99.90;;;;;;5075432;28;20245;-70
2022/04/24 11:52:44;;;;;;;9.52;8.15;;;20.60;99.90;;;;;;5075219;28;20654;-63
2022/04/24 11:55:13;;;;;;;11.43;7.28;;;20.90;99.90;;;;;;5073603;28;20209;-63
2022/04/24 11:57:39;;;;;;;9.75;7.30;;;21.30;99.90;;;;;;5075085;28;20223;-64
2022/04/24 12:00:12;;;;;;;10.20;7.93;;;21.50;99.90;;;;;;5075094;28;20158;-63
2022/04/24 12:02:38;;;;;;;10.23;8.90;;;21.70;99.90;;;;;;5074556;28;20666;-63
2022/04/24 12:05:11;;;;;;;10.13;8.30;;;21.40;99.90;;;;;;5075049;28;20181;-63
2022/04/24 12:07:38;;;;;;;8.88;7.50;;;21.00;99.90;;;;;;5074796;28;20277;-63
2022/04/24 12:10:09;;;;;;;9.32;7.38;;;21.10;99.90;;;;;;5074586;28;20699;-64
2022/04/24 12:12:48;;;;;;;9.60;7.28;;;21.10;99.90;;;;;;5074592;28;20221;-64
2022/04/24 12:15:19;;;;;;;10.00;7.80;;;21.60;99.90;;;;;;5074976;28;20241;-63
2022/04/24 12:17:54;;;;;;;10.68;7.53;;;22.00;99.90;;;;;;5074912;28;20531;-64
2022/04/24 12:20:21;;;;;;;9.65;7.80;;;22.10;99.90;;;;;;5075576;28;20610;-64
2022/04/24 12:22:48;;;;;;;9.15;7.15;;;22.10;99.90;;;;;;5075302;28;20193;-64
2022/04/24 12:25:18;;;;;;;9.32;7.65;;;22.30;99.90;;;;;;5077330;28;20158;-64
2022/04/24 12:28:10;;;;;;;11.63;8.25;;;21.70;99.90;;;;;;5075334;28;20569;-64
2022/04/24 12:30:36;;;;;;;11.27;7.90;;;21.40;99.90;;;;;;5073816;28;20265;-64
2022/04/24 12:33:08;;;;;;;10.80;7.45;;;21.50;99.90;;;;;;5074291;28;20221;-64
2022/04/24 12:35:34;;;;;;;10.20;7.40;;;21.20;99.90;;;;;;5075502;28;20178;-67
2022/04/24 12:38:12;;;;;;;9.32;7.85;;;21.30;99.90;;;;;;5074415;28;20193;-67
2022/04/24 12:40:38;;;;;;;9.32;7.28;;;21.10;99.90;;;;;;5075057;28;20664;-67
2022/04/24 12:43:03;;;;;;;10.25;7.50;;;21.40;99.90;;;;;;5075472;28;20197;-71
2022/04/24 12:45:29;;;;;;;13.80;8.35;;;21.20;99.90;;;;;;5075162;28;20174;-72
2022/04/24 12:47:55;;;;;;;10.85;7.63;;;21.20;99.90;;;;;;5074201;28;20236;-72
2022/04/24 12:50:20;;;;;;;10.60;7.68;;;21.10;99.90;;;;;;5076735;28;20169;-73
2022/04/24 12:52:46;;;;;;;9.73;7.70;;;20.50;99.90;;;;;;5075403;28;20194;-68